Latest Weather Observations for Coen Airport

IDQ60801

Issued at 6:42 pm EST Saturday 16 October 2021 (issued every 10 minutes, with the page automatically refreshed every 10 minutes)

About weather observations | Map of weather stations | Latest weather observations for QLD | Other Formats
Station Details ID: 027073 Name: COEN AIRPORT Lat: -13.76 Lon: 143.12 Height: 159.3 m
Data from the previous 72 hours. | See also: Recent months at Coen Airport
Date/Time
EST
Temp
°C
App
Temp
°C
Dew
Point
°C
Rel
Hum
%
Delta-T
°C
Wind Press
QNH
hPa
Press
MSL
hPa
Rain since
9am
mm
Dir  Spd
km/h
Gust
km/h
Spd
kts
Gust
kts
16/06:30pm 29.4 28.0 15.5 43 8.6 NE 17 24 9 13 1008.8 1007.8 0.0
16/06:00pm 30.7 28.9 15.5 39 9.5 NE 19 28 10 15 1008.5 1007.5 0.0
16/05:30pm 31.8 30.1 15.7 37 10.1 NE 19 30 10 16 1008.2 1007.2 0.0
16/05:00pm 32.6 29.5 15.6 36 10.7 NNE 26 33 14 18 1007.8 1006.8 0.0
16/04:30pm 33.8 31.0 15.3 33 11.6 NE 24 33 13 18 1007.4 1006.4 0.0
16/04:00pm 34.9 32.6 15.7 31 12.2 NNE 22 35 12 19 1007.3 1006.3 0.0
16/03:30pm 36.0 33.5 16.2 31 12.7 NNE 24 37 13 20 1007.3 1006.3 0.0
16/03:00pm 36.5 34.9 16.6 30 12.8 NE 20 35 11 19 1007.4 1006.4 0.0
16/02:30pm 36.5 33.9 15.0 27 13.5 NNE 22 32 12 17 1007.6 1006.6 0.0
16/02:00pm 37.0 36.3 15.5 28 13.7 NNE 13 24 7 13 1007.9 1006.9 0.0
16/01:30pm 35.2 34.4 15.0 30 12.7 NE 13 22 7 12 1008.5 1007.5 0.0
16/01:00pm 36.4 36.9 16.5 30 12.8 WNW 9 17 5 9 1009.1 1008.1 0.0
16/12:30pm 35.2 34.5 15.5 30 12.4 NE 13 24 7 13 1009.9 1008.9 0.0
16/12:00pm 34.9 35.3 17.2 35 11.4 E 11 19 6 10 1010.5 1009.6 0.0
16/11:30am 34.1 34.4 17.8 38 10.6 SE 13 19 7 10 1011.1 1010.1 0.0
16/11:00am 33.9 34.2 18.8 41 9.9 NNE 15 24 8 13 1011.5 1010.5 0.0
16/10:30am 31.8 33.3 19.8 49 8.0 SW 11 17 6 9 1011.9 1010.9 0.0
16/10:00am 30.1 32.8 20.6 56 6.3 WSW 7 11 4 6 1012.3 1011.3 0.0
16/09:30am 28.8 31.4 20.5 61 5.5 SW 7 11 4 6 1012.6 1011.6 0.0
16/09:00am 27.6 30.4 20.4 65 4.8 WSW 6 7 3 4 1012.6 1011.6 9.4
16/08:30am 27.1 30.9 20.9 69 4.1 S 2 6 1 3 1012.6 1011.6 9.4
16/08:00am 25.1 28.3 20.4 75 3.1 S 4 7 2 4 1012.4 1011.4 9.4
16/07:30am 23.9 27.8 20.4 81 2.3 CALM 0 0 0 0 1012.0 1011.0 9.4
16/07:00am 22.8 25.4 20.5 87 1.5 SE 7 9 4 5 1011.7 1010.7 9.4
16/06:30am 21.6 24.1 20.2 92 0.9 S 7 9 4 5 1011.5 1010.5 9.4
16/06:00am 20.8 24.2 19.3 91 1.0 CALM 0 7 0 4 1011.5 1010.5 9.4
16/05:30am 21.2 23.5 19.8 92 0.9 SSE 7 9 4 5 1011.3 1010.3 9.4
16/05:00am 21.1 23.5 19.7 92 0.9 SSE 6 7 3 4 1010.9 1009.9 9.4
16/04:30am 21.5 24.0 20.3 93 0.8 SE 7 9 4 5 1010.4 1009.5 9.4
16/04:00am 21.6 25.4 20.1 91 1.0 CALM 0 0 0 0 1009.9 1008.9 9.4
16/03:30am 21.9 25.1 20.5 92 0.9 NNE 4 7 2 4 1009.9 1008.9 9.4
16/03:29am 21.9 25.1 20.5 92 0.9 NNE 4 7 2 4 1009.9 1008.9 9.4
16/03:05am 21.9 24.1 20.4 91 1.0 NNE 9 13 5 7 1010.0 1009.0 9.4
16/03:00am 21.8 24.0 20.3 91 1.0 NNE 9 13 5 7 1010.0 1009.0 9.4
16/02:30am 21.7 23.7 20.0 90 1.1 N 9 11 5 6 1010.5 1009.6 9.4
16/02:00am 22.0 24.7 20.6 92 0.9 NNE 7 9 4 5 1010.8 1009.8 9.4
16/01:30am 22.8 26.2 21.6 93 0.8 SE 6 7 3 4 1011.4 1010.4 9.4
16/01:00am 23.4 27.2 22.4 94 0.7 SSE 6 7 3 4 1011.6 1010.6 9.4
16/12:30am 23.7 28.4 22.7 94 0.7 SSW 2 7 1 4 1011.8 1010.8 9.2
16/12:00am 23.6 27.4 22.4 93 0.8 SSE 6 6 3 3 1012.1 1011.1 9.2
 
Date/Time
EST
Temp
°C
App
Temp
°C
Dew
Point
°C
Rel
Hum
%
Delta-T
°C
Wind Press
QNH
hPa
Press
MSL
hPa
Rain since
9am
mm
Dir  Spd
km/h
Gust
km/h
Spd
kts
Gust
kts
15/11:30pm 23.8 28.7 22.4 92 0.9 CALM 0 0 0 0 1012.3 1011.3 9.2
15/11:00pm 24.2 29.4 22.8 92 0.9 CALM 0 0 0 0 1012.4 1011.4 9.2
15/10:30pm 24.3 29.0 22.7 91 1.1 SW 2 7 1 4 1012.2 1011.2 9.2
15/10:00pm 24.6 29.9 23.0 91 1.1 CALM 0 0 0 0 1012.1 1011.1 9.2
15/09:30pm 24.5 29.7 22.8 90 1.2 CALM 0 0 0 0 1011.9 1010.9 9.2
15/09:00pm 24.4 27.9 22.8 91 1.1 N 9 13 5 7 1011.6 1010.6 9.2
15/08:30pm 24.4 28.2 22.8 91 1.1 NE 7 11 4 6 1011.6 1010.6 9.2
15/08:00pm 24.4 27.9 22.8 91 1.1 N 9 11 5 6 1011.6 1010.6 9.2
15/07:30pm 24.4 28.2 22.7 90 1.1 ESE 7 9 4 5 1011.3 1010.3 9.2
15/07:00pm 24.5 28.7 22.4 88 1.4 SSE 4 9 2 5 1011.1 1010.1 9.2
15/06:30pm 24.8 28.2 22.7 88 1.4 W 9 11 5 6 1010.7 1009.7 9.2
15/06:00pm 25.9 29.5 23.0 84 2.0 WSW 9 15 5 8 1010.1 1009.2 9.2
15/05:30pm 27.9 31.6 22.6 73 3.6 SSW 7 13 4 7 1009.5 1008.5 9.0
15/05:00pm 28.1 33.4 23.0 74 3.5 CALM 0 6 0 3 1009.2 1008.2 9.0
15/04:30pm 28.2 31.9 23.3 75 3.4 S 9 13 5 7 1009.0 1008.0 9.0
15/04:00pm 27.9 30.6 22.8 74 3.5 SE 13 17 7 9 1008.9 1007.9 9.0
15/03:30pm 27.9 31.9 23.1 75 3.3 SSW 7 9 4 5 1008.6 1007.6 9.0
15/03:00pm 27.5 31.4 22.9 76 3.1 SSE 7 9 4 5 1008.7 1007.7 9.0
15/02:30pm 26.9 31.3 22.1 75 3.2 NW 2 9 1 5 1009.3 1008.3 9.0
15/02:00pm 26.1 29.6 22.8 82 2.2 W 9 13 5 7 1009.6 1008.6 9.0
15/01:30pm 25.6 29.0 22.7 84 2.0 WSW 9 11 5 6 1010.0 1009.0 9.0
15/01:29pm 25.8 29.5 23.3 86 1.7 WSW 9 11 5 6 1010.0 1009.0 9.0
15/01:18pm 25.4 27.5 22.5 84 2.0 WSW 15 20 8 11 1010.3 1009.4 8.8
15/01:13pm 25.7 29.3 23.0 85 1.8 SSW 9 20 5 11 1010.5 1009.6 8.8
15/01:10pm 26.1 29.6 22.8 82 2.2 SSE 9 15 5 8 1010.7 1009.7 8.8
15/01:00pm 25.7 29.5 23.4 87 1.6 SSE 9 13 5 7 1010.5 1009.6 8.4
15/12:54pm 25.4 29.7 22.7 85 1.8 WSW 4 9 2 5 1011.0 1010.0 8.2
15/12:40pm 24.6 26.3 20.9 80 2.4 SW 13 20 7 11 1011.2 1010.2 5.8
15/12:34pm 24.8 25.7 20.9 79 2.6 S 17 24 9 13 1011.4 1010.4 3.6
15/12:30pm 25.5 25.8 20.7 75 3.2 SSE 20 26 11 14 1011.6 1010.6 1.2
15/12:22pm 25.3 24.8 20.8 76 3.0 SE 24 32 13 17 1011.3 1010.3 0.6
15/12:09pm 29.2 28.2 18.9 53 6.7 ESE 22 35 12 19 1011.5 1010.5 0.0
15/12:00pm 30.5 31.4 20.1 53 6.9 E 15 28 8 15 1011.6 1010.6 0.0
15/11:50am 32.5 33.7 20.7 49 7.9 NNE 15 24 8 13 1011.6 1010.6 0.0
15/11:30am 32.2 33.8 20.8 51 7.7 N 13 24 7 13 1011.8 1010.8 0.0
15/11:00am 31.3 33.5 21.2 55 6.8 NNE 11 19 6 10 1012.2 1011.2 0.0
15/10:30am 31.4 33.5 21.0 54 7.0 N 11 20 6 11 1012.4 1011.4 0.0
15/10:00am 30.3 32.7 20.8 56 6.4 NNE 9 17 5 9 1012.9 1011.9 0.0
15/09:30am 30.5 32.4 21.3 58 6.2 NE 13 22 7 12 1013.0 1012.0 0.0
15/09:00am 29.8 32.4 22.0 63 5.3 NE 11 17 6 9 1013.0 1012.0 0.8
15/08:30am 28.7 30.7 21.5 65 4.8 NE 13 17 7 9 1012.8 1011.8 0.8
15/08:00am 27.1 29.5 21.6 72 3.7 NE 11 17 6 9 1012.7 1011.7 0.8
15/07:30am 25.5 28.3 21.6 79 2.6 NNE 9 13 5 7 1012.4 1011.4 0.8
15/07:00am 23.5 27.7 21.0 86 1.6 CALM 0 0 0 0 1011.8 1010.8 0.8
15/06:30am 22.8 25.5 20.7 88 1.4 N 7 9 4 5 1011.4 1010.4 0.8
15/06:00am 23.0 26.0 20.9 88 1.4 N 6 7 3 4 1011.3 1010.3 0.8
15/05:30am 22.9 25.9 20.8 88 1.4 NNE 6 9 3 5 1011.1 1010.1 0.8
15/05:00am 22.9 25.7 20.8 88 1.4 N 7 9 4 5 1010.7 1009.7 0.8
15/04:30am 23.1 25.8 20.6 86 1.6 NE 7 9 4 5 1010.1 1009.2 0.8
15/04:00am 22.9 25.8 21.0 89 1.3 NE 7 9 4 5 1010.1 1009.2 0.8
15/03:30am 22.4 26.2 20.9 91 1.0 ENE 2 7 1 4 1010.3 1009.4 0.8
15/03:00am 22.6 26.7 20.7 89 1.2 CALM 0 0 0 0 1010.2 1009.3 0.8
15/02:30am 23.1 27.2 20.8 87 1.5 CALM 0 0 0 0 1010.3 1009.4 0.8
15/02:00am 23.6 27.9 21.1 86 1.7 CALM 0 0 0 0 1010.4 1009.5 0.8
15/01:30am 24.0 28.4 21.3 85 1.8 CALM 0 0 0 0 1010.8 1009.8 0.8
15/01:00am 24.4 29.1 21.9 86 1.7 CALM 0 2 0 1 1011.3 1010.3 0.8
15/12:30am 24.1 27.8 21.4 85 1.8 N 4 6 2 3 1011.6 1010.6 0.8
15/12:00am 24.3 28.7 21.4 84 1.9 CALM 0 0 0 0 1011.8 1010.8 0.8
 
Date/Time
EST
Temp
°C
App
Temp
°C
Dew
Point
°C
Rel
Hum
%
Delta-T
°C
Wind Press
QNH
hPa
Press
MSL
hPa
Rain since
9am
mm
Dir  Spd
km/h
Gust
km/h
Spd
kts
Gust
kts
14/11:30pm 24.6 27.6 21.3 82 2.2 N 7 9 4 5 1011.8 1010.8 0.8
14/11:00pm 25.1 27.8 21.4 80 2.5 NE 9 15 5 8 1011.9 1010.9 0.8
14/10:30pm 25.3 28.1 21.6 80 2.5 NE 9 15 5 8 1012.0 1011.0 0.8
14/10:00pm 25.0 28.2 21.7 82 2.2 N 7 9 4 5 1011.7 1010.7 0.8
14/09:30pm 25.0 28.2 21.3 80 2.5 NNW 6 9 3 5 1011.4 1010.4 0.8
14/09:00pm 25.1 27.6 21.0 78 2.7 N 9 15 5 8 1010.7 1009.7 0.8
14/08:30pm 25.4 27.0 21.5 79 2.6 N 15 19 8 10 1009.9 1008.9 0.8
14/08:00pm 25.8 26.5 21.2 76 3.1 NE 19 30 10 16 1009.1 1008.1 0.8
14/07:30pm 26.5 26.5 21.0 72 3.7 NNE 22 30 12 16 1008.6 1007.6 0.8
14/07:00pm 27.0 27.8 20.6 68 4.2 NE 17 22 9 12 1008.0 1007.0 0.8
14/06:30pm 27.9 28.6 20.5 64 4.9 NNE 17 24 9 13 1007.6 1006.6 0.8
14/06:00pm 29.0 30.1 20.4 59 5.7 NE 15 22 8 12 1007.6 1006.6 0.8
14/05:30pm 30.4 31.5 21.2 58 6.2 ENE 17 28 9 15 1007.1 1006.1 0.8
14/05:00pm 30.5 31.8 21.6 59 6.0 NE 17 30 9 16 1006.9 1005.9 0.8
14/04:30pm 29.8 34.6 24.4 73 3.8 N 7 15 4 8 1006.9 1005.9 0.8
14/04:00pm 29.7 32.8 22.9 67 4.7 N 11 15 6 8 1007.4 1006.4 0.2
14/03:30pm 31.3 29.5 17.9 44 8.6 NE 24 41 13 22 1007.0 1006.0 0.0
14/03:25pm 31.1 30.0 17.8 45 8.6 NE 20 41 11 22 1007.0 1006.0 0.0
14/03:00pm 35.3 35.8 18.4 37 11.1 NNE 13 20 7 11 1006.9 1005.9 0.0
14/02:30pm 35.6 35.1 16.8 32 12.1 NE 15 22 8 12 1007.2 1006.2 0.0
14/02:00pm 35.6 35.8 16.8 32 12.1 WNW 11 20 6 11 1007.7 1006.7 0.0
14/01:30pm 36.3 36.0 16.5 31 12.7 N 13 22 7 12 1008.2 1007.2 0.0
14/01:00pm 35.6 35.3 16.4 32 12.3 NNW 13 20 7 11 1008.8 1007.8 0.0
14/12:30pm 35.2 35.1 15.0 30 12.7 S 9 17 5 9 1009.3 1008.3 0.0
14/12:00pm 34.5 34.8 15.9 33 11.8 NW 9 19 5 10 1009.9 1008.9 0.0
14/11:30am 34.7 35.5 17.4 35 11.2 NNW 9 19 5 10 1010.3 1009.4 0.0
14/11:00am 32.2 32.5 16.9 40 9.8 NNW 11 20 6 11 1010.9 1009.9 0.0
14/10:30am 32.7 33.5 18.1 42 9.5 E 11 19 6 10 1011.1 1010.1 0.0
14/10:00am 30.5 31.7 18.2 47 8.0 NW 9 15 5 8 1011.3 1010.3 0.0
14/09:30am 29.8 31.2 18.6 51 7.3 NNE 9 19 5 10 1011.7 1010.7 0.0
14/09:00am 29.4 30.1 19.7 56 6.4 NE 15 20 8 11 1011.6 1010.6 0.0
14/08:30am 28.5 29.5 19.4 57 5.9 ENE 13 17 7 9 1011.6 1010.6 0.0
14/08:00am 27.3 28.6 20.9 68 4.3 NE 15 20 8 11 1011.0 1010.0 0.0
14/07:30am 26.4 28.7 21.4 74 3.3 NE 11 17 6 9 1010.7 1009.7 0.0
14/07:00am 24.6 27.3 21.3 82 2.2 NE 9 13 5 7 1010.1 1009.2 0.0
14/06:30am 23.6 26.4 20.9 85 1.8 NE 7 11 4 6 1009.8 1008.8 0.0
14/06:00am 23.5 26.4 21.0 86 1.6 NE 7 9 4 5 1009.5 1008.5 0.0
14/05:30am 22.4 25.1 20.7 90 1.1 NE 7 9 4 5 1009.2 1008.2 0.0
14/05:00am 22.1 25.7 19.8 87 1.5 CALM 0 0 0 0 1009.0 1008.0 0.0
14/04:30am 23.1 25.8 20.6 86 1.6 E 7 9 4 5 1008.7 1007.7 0.0
14/04:00am 23.5 26.3 20.8 85 1.8 ENE 7 9 4 5 1008.5 1007.5 0.0
14/03:30am 23.9 26.9 20.8 83 2.0 NE 6 9 3 5 1008.5 1007.5 0.0
14/03:00am 24.2 26.9 20.7 81 2.3 ENE 7 9 4 5 1008.4 1007.4 0.0
14/02:30am 24.3 27.1 20.4 79 2.6 N 6 7 3 4 1008.6 1007.6 0.0
14/02:00am 24.8 27.5 20.7 78 2.7 NNE 7 11 4 6 1008.6 1007.6 0.0
14/01:30am 25.2 27.6 20.9 77 2.8 NE 9 13 5 7 1008.8 1007.8 0.0
14/01:00am 25.2 27.3 20.9 77 2.8 NE 11 15 6 8 1008.8 1007.8 0.0
14/12:30am 25.3 27.8 21.0 77 2.8 NNE 9 13 5 7 1009.4 1008.4 0.0
14/12:00am 25.4 27.5 20.9 76 3.0 NNE 11 13 6 7 1009.7 1008.7 0.0
 
Date/Time
EST
Temp
°C
App
Temp
°C
Dew
Point
°C
Rel
Hum
%
Delta-T
°C
Wind Press
QNH
hPa
Press
MSL
hPa
Rain since
9am
mm
Dir  Spd
km/h
Gust
km/h
Spd
kts
Gust
kts
13/11:30pm 25.7 27.5 20.3 72 3.5 N 11 17 6 9 1010.2 1009.3 0.0
13/11:00pm 26.1 28.1 20.0 69 4.0 N 9 15 5 8 1010.4 1009.5 0.0
13/10:30pm 26.1 27.4 20.2 70 3.9 N 13 19 7 10 1010.4 1009.5 0.0
13/10:00pm 26.4 27.6 20.0 68 4.2 NW 13 19 7 10 1010.2 1009.3 0.0
13/09:30pm 27.1 27.7 19.4 62 5.0 NW 15 26 8 14 1009.8 1008.8 0.0
13/09:00pm 26.9 26.5 19.0 62 5.1 NNE 19 28 10 15 1008.8 1007.8 0.0
13/08:30pm 27.6 26.1 17.7 54 6.3 NNE 22 32 12 17 1008.7 1007.7 0.0
13/08:00pm 27.4 28.4 19.5 62 5.2 NNE 13 17 7 9 1008.7 1007.7 0.0
13/07:30pm 27.8 29.0 19.1 59 5.6 NNE 11 17 6 9 1008.2 1007.2 0.0
13/07:00pm 28.3 27.2 17.8 53 6.7 NNE 20 30 11 16 1007.7 1006.7 0.0

Other formats

Comma delimited format used in spreadsheet applications
http://www.bom.gov.au/fwo/IDQ60801/IDQ60801.94183.axf

JavaScript Object Notation format (JSON) in row-major order
http://www.bom.gov.au/fwo/IDQ60801/IDQ60801.94183.json

Data quality

Most of these data are generated automatically and are frequently updated. Quality checks on data are not normally performed. It is possible for incorrect values to appear. Refer to information at About Latest Weather Observations and please check the disclaimer before using these data.